createdAt,value
2019-06-08T00:01:25.203Z,79.30
2019-06-08T00:03:54.429Z,79.40
2019-06-08T00:06:23.700Z,80.00
2019-06-08T00:08:52.947Z,79.00
2019-06-08T00:11:23.430Z,78.50
2019-06-08T00:13:53.211Z,78.50
2019-06-08T00:16:24.062Z,79.30
2019-06-08T00:18:53.993Z,77.80
2019-06-08T00:21:24.115Z,77.20
2019-06-08T00:23:53.781Z,77.20
2019-06-08T00:26:26.079Z,78.40
2019-06-08T00:28:55.538Z,78.50
2019-06-08T00:31:25.083Z,76.60
2019-06-08T00:33:54.666Z,76.20
2019-06-08T00:36:25.061Z,76.30
2019-06-08T00:38:54.484Z,76.60
2019-06-08T00:41:23.832Z,75.60
2019-06-08T00:43:53.107Z,75.20
2019-06-08T00:46:23.481Z,76.00
2019-06-08T00:48:53.384Z,75.80
2019-06-08T00:51:23.107Z,75.20
2019-06-08T00:53:52.462Z,74.80
2019-06-08T00:56:21.839Z,74.70
2019-06-08T00:58:51.121Z,74.90
2019-06-08T01:01:22.567Z,75.40
2019-06-08T01:03:51.297Z,75.10
2019-06-08T01:06:20.932Z,73.80
2019-06-08T01:08:50.413Z,74.30
2019-06-08T01:11:20.923Z,74.20
2019-06-08T01:13:50.479Z,74.60
2019-06-08T01:16:20.859Z,75.40
2019-06-08T01:18:50.409Z,74.40
2019-06-08T01:21:19.696Z,74.80
2019-06-08T01:23:48.909Z,74.60
2019-06-08T01:26:19.699Z,74.20
2019-06-08T01:28:49.547Z,74.80
2019-06-08T01:31:20.286Z,74.60
2019-06-08T01:33:49.910Z,75.80
2019-06-08T01:36:19.161Z,76.10
2019-06-08T01:38:48.675Z,76.10
2019-06-08T01:41:17.995Z,76.10
2019-06-08T01:43:47.332Z,75.90
2019-06-08T01:46:16.510Z,75.90
2019-06-08T01:48:45.707Z,76.30
2019-06-08T01:51:14.884Z,76.20
2019-06-08T01:53:44.101Z,75.50
2019-06-08T01:56:13.633Z,76.60
2019-06-08T01:58:42.833Z,75.90
2019-06-08T02:01:12.091Z,75.50
2019-06-08T02:03:41.285Z,76.10
2019-06-08T02:06:10.609Z,76.10
2019-06-08T02:08:39.803Z,76.10
2019-06-08T02:11:09.002Z,75.50
2019-06-08T02:13:38.298Z,75.70
2019-06-08T02:16:07.573Z,75.80
2019-06-08T02:18:48.954Z,75.30
2019-06-08T02:21:07.855Z,75.00
2019-06-08T02:23:39.706Z,74.80
2019-06-08T02:26:09.227Z,74.60
2019-06-08T02:28:38.422Z,74.70
2019-06-08T02:31:07.645Z,75.10
2019-06-08T02:33:37.398Z,74.90
2019-06-08T02:36:06.679Z,75.10
2019-06-08T02:38:36.164Z,76.10
2019-06-08T02:41:06.292Z,75.40
2019-06-08T02:43:37.698Z,75.40
2019-06-08T02:46:06.738Z,75.50
2019-06-08T02:48:59.327Z,75.00
2019-06-08T02:51:08.066Z,75.10
2019-06-08T02:53:39.024Z,76.10
2019-06-08T02:56:09.819Z,75.70
2019-06-08T02:58:41.949Z,75.90
2019-06-08T03:01:11.727Z,76.60
2019-06-08T03:03:41.941Z,75.40
2019-06-08T03:06:11.208Z,76.20
2019-06-08T03:08:43.521Z,76.60
2019-06-08T03:11:12.651Z,76.50
2019-06-08T03:13:43.795Z,77.10
2019-06-08T03:16:13.060Z,76.90
2019-06-08T03:18:45.292Z,77.00
2019-06-08T03:21:33.992Z,77.10
2019-06-08T03:24:06.370Z,76.70
2019-06-08T03:26:36.695Z,76.90
2019-06-08T03:29:06.616Z,77.00
2019-06-08T03:31:42.578Z,76.90
2019-06-08T03:34:06.750Z,77.10
2019-06-08T03:36:43.381Z,76.30
2019-06-08T03:39:07.462Z,76.50
2019-06-08T03:41:38.561Z,75.80
2019-06-08T03:44:07.712Z,76.10
2019-06-08T03:46:38.671Z,77.10
2019-06-08T03:49:07.919Z,77.10
2019-06-08T03:51:40.107Z,75.90
2019-06-08T03:54:08.135Z,76.30
2019-06-08T03:56:40.159Z,76.50
2019-06-08T03:59:10.219Z,77.10
2019-06-08T04:01:39.803Z,77.10
2019-06-08T04:04:09.680Z,76.60
2019-06-08T04:06:39.860Z,77.20
2019-06-08T04:09:09.819Z,77.10
2019-06-08T04:11:40.167Z,77.00
2019-06-08T04:14:10.101Z,77.70
2019-06-08T04:16:40.205Z,77.40
2019-06-08T04:19:10.042Z,77.40
2019-06-08T04:21:40.279Z,77.40
2019-06-08T04:24:09.659Z,76.70
2019-06-08T04:26:40.512Z,77.50
2019-06-08T04:29:09.825Z,77.50
2019-06-08T04:31:39.632Z,77.50
2019-06-08T04:34:10.349Z,78.10
2019-06-08T04:36:41.289Z,77.30
2019-06-08T04:39:10.454Z,78.40
2019-06-08T04:41:40.722Z,78.20
2019-06-08T04:44:10.656Z,78.60
2019-06-08T04:46:40.755Z,78.10
2019-06-08T04:49:10.605Z,78.00
2019-06-08T04:51:40.797Z,78.30
2019-06-08T04:54:14.567Z,78.90
2019-06-08T04:56:44.909Z,78.50
2019-06-08T04:59:14.237Z,79.70
2019-06-08T05:01:45.050Z,79.50
2019-06-08T05:04:14.404Z,80.10
2019-06-08T05:06:45.048Z,79.90
2019-06-08T05:09:14.569Z,80.70
2019-06-08T05:11:47.512Z,80.30
2019-06-08T05:14:16.812Z,80.30
2019-06-08T05:16:47.424Z,80.90
2019-06-08T05:19:16.975Z,81.10
2019-06-08T05:21:47.421Z,81.30
2019-06-08T05:24:16.811Z,81.70
2019-06-08T05:26:47.159Z,81.20
2019-06-08T05:29:16.673Z,81.90
2019-06-08T05:31:45.927Z,82.70
2019-06-08T05:34:15.211Z,83.10
2019-06-08T05:36:45.444Z,82.90
2019-06-08T05:39:14.732Z,82.70
2019-06-08T05:41:43.923Z,83.40
2019-06-08T05:44:13.204Z,83.50
2019-06-08T05:46:43.707Z,84.50
2019-06-08T05:49:13.233Z,85.30
2019-06-08T05:51:43.682Z,85.00
2019-06-08T05:54:13.032Z,83.90
2019-06-08T05:56:42.226Z,84.80
2019-06-08T05:59:11.709Z,84.40
2019-06-08T06:01:42.400Z,85.20
2019-06-08T06:04:12.071Z,85.10
2019-06-08T06:06:42.348Z,83.90
2019-06-08T06:09:11.867Z,84.60
2019-06-08T06:11:41.130Z,84.80
2019-06-08T06:14:10.411Z,84.30
2019-06-08T06:16:40.812Z,83.90
2019-06-08T06:19:10.405Z,84.10
2019-06-08T06:21:40.907Z,83.50
2019-06-08T06:24:10.483Z,82.80
2019-06-08T06:26:41.293Z,82.70
2019-06-08T06:29:10.653Z,83.00
2019-06-08T06:31:39.838Z,83.50
2019-06-08T06:34:09.037Z,83.30
2019-06-08T06:36:38.374Z,82.60
2019-06-08T06:39:08.084Z,83.10
2019-06-08T06:41:37.264Z,82.50
2019-06-08T06:44:06.501Z,82.50
2019-06-08T06:46:35.762Z,82.90
2019-06-08T06:49:07.366Z,82.40
2019-06-08T06:51:38.374Z,81.70
2019-06-08T06:54:07.596Z,80.80
2019-06-08T06:56:36.980Z,79.90
2019-06-08T06:59:06.322Z,78.80
2019-06-08T07:01:35.760Z,79.40
2019-06-08T07:04:05.252Z,79.20
2019-06-08T07:06:34.472Z,78.80
2019-06-08T07:09:06.179Z,78.50
2019-06-08T07:11:35.639Z,79.10
2019-06-08T07:14:06.580Z,77.90
2019-06-08T07:16:35.916Z,78.00
2019-06-08T07:19:05.207Z,77.90
2019-06-08T07:21:41.758Z,78.90
2019-06-08T07:24:05.453Z,77.60
2019-06-08T07:26:34.681Z,77.90
2019-06-08T07:29:04.040Z,78.90
2019-06-08T07:31:33.231Z,78.30
2019-06-08T07:34:02.527Z,77.70
2019-06-08T07:36:31.810Z,77.10
2019-06-08T07:39:01.230Z,76.70
2019-06-08T07:41:30.872Z,76.30
2019-06-08T07:44:00.163Z,76.60
2019-06-08T07:46:29.593Z,77.20
2019-06-08T07:49:00.892Z,77.10
2019-06-08T07:51:30.152Z,76.00
2019-06-08T07:53:59.946Z,76.00
2019-06-08T07:56:29.436Z,75.40
2019-06-08T07:58:59.098Z,74.00
2019-06-08T08:01:36.220Z,73.80
2019-06-08T08:03:59.561Z,72.30
2019-06-08T08:06:30.514Z,72.50
2019-06-08T08:09:01.047Z,72.50
2019-06-08T08:11:30.313Z,72.00
2019-06-08T08:13:59.502Z,72.00
2019-06-08T08:16:28.825Z,73.20
2019-06-08T08:18:59.581Z,70.70
2019-06-08T08:21:29.581Z,71.80
2019-06-08T08:24:01.389Z,70.90
2019-06-08T08:26:31.311Z,69.60
2019-06-08T08:29:03.080Z,70.40
2019-06-08T08:31:32.020Z,70.10
2019-06-08T08:34:05.644Z,70.20
2019-06-08T08:36:33.571Z,68.40
2019-06-08T08:39:02.993Z,68.90
2019-06-08T08:41:32.312Z,68.70
2019-06-08T08:42:31.884Z,65.70
2019-06-08T08:44:04.258Z,69.00
2019-06-08T08:46:32.622Z,69.00
2019-06-08T08:48:52.456Z,65.60
2019-06-08T08:49:09.345Z,69.20
2019-06-08T08:51:21.021Z,66.10
2019-06-08T08:51:32.943Z,69.00
2019-06-08T08:53:53.834Z,65.70
2019-06-08T08:54:05.317Z,69.40
2019-06-08T08:56:20.022Z,65.60
2019-06-08T08:56:34.342Z,69.40
2019-06-08T08:58:48.580Z,66.30
2019-06-08T08:59:03.592Z,69.00
2019-06-08T09:01:20.470Z,64.80
2019-06-08T09:01:32.845Z,69.10
2019-06-08T09:03:48.258Z,63.90
2019-06-08T09:04:04.995Z,67.10
2019-06-08T09:06:18.111Z,63.10
2019-06-08T09:06:33.557Z,66.30
2019-06-08T09:08:48.495Z,62.90
2019-06-08T09:09:03.947Z,66.40
2019-06-08T09:11:17.566Z,62.20
2019-06-08T09:11:33.173Z,67.30
2019-06-08T09:13:48.721Z,62.00
2019-06-08T09:14:05.255Z,67.60
2019-06-08T09:16:17.741Z,59.80
2019-06-08T09:16:33.460Z,66.00
2019-06-08T09:18:47.960Z,58.30
2019-06-08T09:19:04.791Z,64.10
2019-06-08T09:21:18.618Z,57.90
2019-06-08T09:21:34.243Z,63.30
2019-06-08T09:23:49.554Z,57.90
2019-06-08T09:24:04.064Z,64.00
2019-06-08T09:26:18.311Z,58.20
2019-06-08T09:26:38.193Z,63.60
2019-06-08T09:28:46.860Z,59.70
2019-06-08T09:29:11.415Z,65.20
2019-06-08T09:31:18.394Z,61.60
2019-06-08T09:31:41.097Z,64.70
2019-06-08T09:33:53.417Z,63.60
2019-06-08T09:34:14.926Z,64.50
2019-06-08T09:36:17.701Z,63.00
2019-06-08T09:36:41.247Z,65.20
2019-06-08T09:38:47.949Z,63.80
2019-06-08T09:39:12.916Z,65.50
2019-06-08T09:41:18.611Z,63.20
2019-06-08T09:41:41.620Z,65.40
2019-06-08T09:43:48.734Z,62.70
2019-06-08T09:44:11.761Z,64.70
2019-06-08T09:46:17.898Z,63.00
2019-06-08T09:46:41.755Z,66.10
2019-06-08T09:48:48.634Z,62.20
2019-06-08T09:49:13.803Z,63.80
2019-06-08T09:51:20.641Z,63.60
2019-06-08T09:51:48.494Z,66.00
2019-06-08T09:53:49.206Z,64.80
2019-06-08T09:54:18.294Z,65.10
2019-06-08T09:56:18.523Z,63.80
2019-06-08T09:56:47.958Z,64.20
2019-06-08T09:58:51.131Z,63.60
2019-06-08T09:59:20.081Z,63.60
2019-06-08T10:01:18.442Z,63.00
2019-06-08T10:01:49.333Z,63.70
2019-06-08T10:03:48.303Z,64.60
2019-06-08T10:04:18.745Z,66.00
2019-06-08T10:06:18.212Z,63.20
2019-06-08T10:06:48.135Z,64.30
2019-06-08T10:08:48.435Z,64.30
2019-06-08T10:09:18.663Z,65.70
2019-06-08T10:11:16.922Z,65.20
2019-06-08T10:11:51.506Z,65.80
2019-06-08T10:13:47.729Z,65.20
2019-06-08T10:14:20.829Z,65.40
2019-06-08T10:16:18.389Z,66.70
2019-06-08T10:16:50.156Z,65.10
2019-06-08T10:18:51.089Z,64.60
2019-06-08T10:19:19.344Z,64.40
2019-06-08T10:21:18.307Z,65.10
2019-06-08T10:21:49.025Z,63.90
2019-06-08T10:23:49.593Z,64.00
2019-06-08T10:24:18.313Z,64.20
2019-06-08T10:26:18.226Z,57.90
2019-06-08T10:26:47.930Z,59.60
2019-06-08T10:28:48.224Z,55.90
2019-06-08T10:29:18.465Z,59.50
2019-06-08T10:31:17.599Z,52.90
2019-06-08T10:31:48.460Z,57.70
2019-06-08T10:33:48.327Z,50.90
2019-06-08T10:34:20.401Z,56.20
2019-06-08T10:36:18.266Z,51.80
2019-06-08T10:36:49.354Z,58.90
2019-06-08T10:38:48.005Z,55.40
2019-06-08T10:39:18.594Z,57.90
2019-06-08T10:41:21.070Z,58.40
2019-06-08T10:41:51.282Z,60.30
2019-06-08T10:43:48.746Z,58.80
2019-06-08T10:44:18.802Z,60.00
2019-06-08T10:46:20.696Z,59.60
2019-06-08T10:46:48.324Z,60.90
2019-06-08T10:48:48.619Z,61.60
2019-06-08T10:49:18.619Z,61.10
2019-06-08T10:51:18.387Z,58.20
2019-06-08T10:51:48.910Z,60.90
2019-06-08T10:53:52.667Z,58.20
2019-06-08T10:54:18.323Z,59.70
2019-06-08T10:56:20.099Z,58.90
2019-06-08T10:56:48.555Z,58.80
2019-06-08T10:58:49.803Z,59.40
2019-06-08T10:59:18.664Z,59.70
2019-06-08T11:01:18.923Z,61.50
2019-06-08T11:01:48.078Z,61.00
2019-06-08T11:03:50.575Z,62.60
2019-06-08T11:04:18.596Z,61.10
2019-06-08T11:06:19.272Z,62.70
2019-06-08T11:06:48.241Z,61.10
2019-06-08T11:08:47.818Z,62.40
2019-06-08T11:09:18.869Z,60.60
2019-06-08T11:11:19.565Z,63.60
2019-06-08T11:11:50.291Z,61.20
2019-06-08T11:13:50.155Z,61.10
2019-06-08T11:14:22.536Z,60.60
2019-06-08T11:16:18.005Z,60.50
2019-06-08T11:16:50.807Z,60.00
2019-06-08T11:18:50.651Z,59.20
2019-06-08T11:19:20.141Z,59.00
2019-06-08T11:21:18.728Z,57.90
2019-06-08T11:21:49.500Z,58.80
2019-06-08T11:24:04.704Z,56.80
2019-06-08T11:24:24.911Z,59.20
2019-06-08T11:26:23.826Z,57.30
2019-06-08T11:26:49.947Z,57.50
2019-06-08T11:28:48.330Z,57.30
2019-06-08T11:29:23.107Z,57.00
2019-06-08T11:31:19.539Z,58.20
2019-06-08T11:31:52.666Z,58.50
2019-06-08T11:33:49.005Z,58.50
2019-06-08T11:34:22.093Z,59.10
2019-06-08T11:36:18.868Z,58.60
2019-06-08T11:36:51.759Z,59.10
2019-06-08T11:38:48.049Z,59.00
2019-06-08T11:39:21.390Z,59.00
2019-06-08T11:41:18.996Z,59.70
2019-06-08T11:41:50.753Z,58.00
2019-06-08T11:43:46.862Z,59.00
2019-06-08T11:44:20.071Z,59.00
2019-06-08T11:46:18.255Z,58.20
2019-06-08T11:46:49.334Z,58.20
2019-06-08T11:48:48.378Z,59.20
2019-06-08T11:49:18.837Z,58.30
2019-06-08T11:51:16.098Z,59.60
2019-06-08T11:51:48.224Z,60.00
2019-06-08T11:53:44.626Z,60.80
2019-06-08T11:54:32.339Z,58.90
2019-06-08T11:56:13.582Z,59.60
2019-06-08T11:56:52.305Z,57.70
2019-06-08T11:58:43.253Z,57.40
2019-06-08T11:59:21.530Z,56.90
2019-06-08T12:01:14.764Z,57.50
2019-06-08T12:01:50.812Z,56.90
2019-06-08T12:03:42.000Z,57.10
2019-06-08T12:04:20.150Z,56.10
2019-06-08T12:06:12.995Z,55.10
2019-06-08T12:06:49.433Z,56.30
2019-06-08T12:08:40.838Z,57.40
2019-06-08T12:09:20.127Z,55.20
2019-06-08T12:11:16.161Z,57.20
2019-06-08T12:11:49.912Z,54.40
2019-06-08T12:13:39.615Z,57.50
2019-06-08T12:14:19.113Z,53.30
2019-06-08T12:16:14.648Z,56.10
2019-06-08T12:16:48.707Z,53.70
2019-06-08T12:18:40.340Z,55.40
2019-06-08T12:19:20.889Z,50.90
2019-06-08T12:21:10.123Z,57.80
2019-06-08T12:21:50.045Z,53.00
2019-06-08T12:23:38.846Z,58.10
2019-06-08T12:24:19.463Z,55.10
2019-06-08T12:26:08.203Z,59.70
2019-06-08T12:26:52.691Z,54.90
2019-06-08T12:28:38.151Z,56.50
2019-06-08T12:29:19.700Z,53.70
2019-06-08T12:31:13.205Z,54.00
2019-06-08T12:31:48.959Z,50.70
2019-06-08T12:33:39.274Z,51.20
2019-06-08T12:34:18.604Z,49.20
2019-06-08T12:36:12.671Z,50.30
2019-06-08T12:36:48.215Z,48.80
2019-06-08T12:38:41.203Z,48.90
2019-06-08T12:39:19.725Z,49.20
2019-06-08T12:41:12.289Z,49.80
2019-06-08T12:41:48.550Z,49.50
2019-06-08T12:43:39.957Z,50.90
2019-06-08T12:44:21.696Z,48.90
2019-06-08T12:46:11.155Z,51.00
2019-06-08T12:46:48.736Z,49.00
2019-06-08T12:48:38.797Z,48.50
2019-06-08T12:49:18.737Z,46.00
2019-06-08T12:51:09.965Z,47.70
2019-06-08T12:51:51.530Z,45.40
2019-06-08T12:53:38.195Z,45.90
2019-06-08T12:54:20.787Z,45.20
2019-06-08T12:56:12.074Z,50.60
2019-06-08T12:56:50.084Z,46.30
2019-06-08T12:58:42.232Z,52.80
2019-06-08T12:59:22.553Z,47.60
2019-06-08T13:01:11.068Z,53.40
2019-06-08T13:01:50.701Z,48.40
2019-06-08T13:03:40.174Z,55.10
2019-06-08T13:04:23.127Z,50.40
2019-06-08T13:06:09.620Z,56.40
2019-06-08T13:06:51.675Z,52.70
2019-06-08T13:08:38.951Z,56.80
2019-06-08T13:09:21.016Z,52.70
2019-06-08T13:11:09.340Z,58.50
2019-06-08T13:11:50.812Z,56.50
2019-06-08T13:13:37.872Z,66.50
2019-06-08T13:14:20.815Z,86.10
2019-06-08T13:16:06.517Z,80.70
2019-06-08T13:16:52.992Z,99.90
2019-06-08T13:18:35.070Z,84.90
2019-06-08T13:19:21.516Z,99.90
2019-06-08T13:21:16.620Z,86.80
2019-06-08T13:22:10.793Z,99.90
2019-06-08T13:23:33.815Z,85.70
2019-06-08T13:24:40.066Z,99.90
2019-06-08T13:26:04.058Z,87.30
2019-06-08T13:27:12.014Z,99.90
2019-06-08T13:28:32.608Z,79.00
2019-06-08T13:29:40.257Z,99.90
2019-06-08T13:31:01.140Z,77.80
2019-06-08T13:32:09.836Z,99.00
2019-06-08T13:33:29.667Z,77.60
2019-06-08T13:34:39.165Z,99.90
2019-06-08T13:35:58.248Z,74.40
2019-06-08T13:37:08.515Z,94.80
2019-06-08T13:38:27.767Z,75.40
2019-06-08T13:39:38.791Z,83.20
2019-06-08T13:40:58.602Z,71.40
2019-06-08T13:42:08.124Z,86.30
2019-06-08T13:43:26.659Z,67.60
2019-06-08T13:44:37.875Z,91.10
2019-06-08T13:45:58.106Z,68.40
2019-06-08T13:47:07.647Z,88.50
2019-06-08T13:48:25.504Z,71.10
2019-06-08T13:49:38.375Z,92.80
2019-06-08T13:50:54.072Z,76.00
2019-06-08T13:52:07.971Z,90.20
2019-06-08T13:53:27.316Z,77.20
2019-06-08T13:54:38.445Z,99.90
2019-06-08T13:55:56.722Z,79.00
2019-06-08T13:57:08.587Z,99.90
2019-06-08T13:58:32.185Z,82.20
2019-06-08T13:59:38.974Z,99.90
2019-06-08T14:00:57.417Z,89.20
2019-06-08T14:02:08.432Z,99.90
2019-06-08T14:03:27.797Z,91.20
2019-06-08T14:04:39.748Z,99.90
2019-06-08T14:05:56.200Z,90.80
2019-06-08T14:07:11.608Z,99.90
2019-06-08T14:08:26.510Z,90.80
2019-06-08T14:09:40.931Z,99.90
2019-06-08T14:11:00.526Z,91.30
2019-06-08T14:12:10.271Z,99.90
2019-06-08T14:13:27.807Z,88.00
2019-06-08T14:14:39.916Z,99.90
2019-06-08T14:15:58.446Z,82.10
2019-06-08T14:17:09.505Z,99.90
2019-06-08T14:18:30.948Z,82.80
2019-06-08T14:19:38.697Z,99.90
2019-06-08T14:20:58.941Z,82.80
2019-06-08T14:22:10.450Z,99.90
2019-06-08T14:23:26.816Z,80.60
2019-06-08T14:24:38.919Z,99.90
2019-06-08T14:25:59.428Z,78.10
2019-06-08T14:27:08.318Z,99.90
2019-06-08T14:28:26.618Z,79.90
2019-06-08T14:29:37.937Z,99.90
2019-06-08T14:30:55.901Z,84.50
2019-06-08T14:32:08.897Z,99.90
2019-06-08T14:33:29.117Z,84.80
2019-06-08T14:34:38.832Z,99.90
2019-06-08T14:35:59.177Z,87.10
2019-06-08T14:37:08.719Z,99.90
2019-06-08T14:38:35.051Z,87.30
2019-06-08T14:39:38.199Z,99.90
2019-06-08T14:40:59.097Z,88.60
2019-06-08T14:42:08.271Z,99.90
2019-06-08T14:43:30.006Z,90.40
2019-06-08T14:44:38.184Z,99.90
2019-06-08T14:45:58.097Z,93.00
2019-06-08T14:47:16.500Z,99.90
2019-06-08T14:48:32.116Z,93.90
2019-06-08T14:49:48.511Z,99.90
2019-06-08T14:50:58.605Z,94.10
2019-06-08T14:52:20.273Z,99.90
2019-06-08T14:53:27.083Z,94.60
2019-06-08T14:54:51.260Z,99.90
2019-06-08T14:56:05.547Z,94.60
2019-06-08T14:57:19.765Z,99.90
2019-06-08T14:58:29.315Z,94.10
2019-06-08T14:59:50.773Z,99.90
2019-06-08T15:00:57.935Z,93.40
2019-06-08T15:02:21.197Z,99.90
2019-06-08T15:03:27.242Z,93.50
2019-06-08T15:04:50.811Z,99.90
2019-06-08T15:05:57.729Z,91.90
2019-06-08T15:07:22.132Z,99.90
2019-06-08T15:08:28.218Z,91.20
2019-06-08T15:09:51.084Z,99.90
2019-06-08T15:10:58.209Z,89.30
2019-06-08T15:12:21.356Z,99.90
2019-06-08T15:13:28.593Z,87.70
2019-06-08T15:14:50.911Z,99.90
2019-06-08T15:16:00.443Z,84.10
2019-06-08T15:17:20.215Z,99.90
2019-06-08T15:18:28.852Z,85.90
2019-06-08T15:19:49.649Z,99.90
2019-06-08T15:20:58.109Z,85.60
2019-06-08T15:22:20.753Z,99.90
2019-06-08T15:23:29.108Z,83.50
2019-06-08T15:24:50.027Z,99.90
2019-06-08T15:25:58.272Z,84.30
2019-06-08T15:27:22.640Z,99.90
2019-06-08T15:28:29.547Z,82.60
2019-06-08T15:29:51.800Z,99.90
2019-06-08T15:30:59.828Z,82.20
2019-06-08T15:32:21.345Z,98.20
2019-06-08T15:33:32.207Z,80.70
2019-06-08T15:34:50.906Z,99.90
2019-06-08T15:36:00.569Z,81.70
2019-06-08T15:37:21.178Z,99.90
2019-06-08T15:38:31.598Z,78.90
2019-06-08T15:39:51.450Z,99.90
2019-06-08T15:40:59.335Z,76.60
2019-06-08T15:42:24.285Z,99.90
2019-06-08T15:43:31.360Z,76.40
2019-06-08T15:44:53.673Z,91.20
2019-06-08T15:45:59.120Z,73.40
2019-06-08T15:47:24.056Z,95.80
2019-06-08T15:48:29.430Z,76.80
2019-06-08T15:49:54.127Z,86.40
2019-06-08T15:50:58.508Z,73.10
2019-06-08T15:52:24.419Z,89.70
2019-06-08T15:53:30.712Z,72.40
2019-06-08T15:54:54.051Z,95.40
2019-06-08T15:55:59.083Z,76.90
2019-06-08T15:57:24.736Z,99.90
2019-06-08T15:58:29.921Z,79.80
2019-06-08T15:59:54.084Z,99.90
2019-06-08T16:00:57.858Z,79.50
2019-06-08T16:02:23.471Z,99.90
2019-06-08T16:03:27.448Z,81.30
2019-06-08T16:04:52.917Z,99.90
2019-06-08T16:05:56.149Z,83.20
2019-06-08T16:07:27.695Z,99.90
2019-06-08T16:08:25.917Z,84.70
2019-06-08T16:09:53.648Z,99.90
2019-06-08T16:10:54.918Z,84.40
2019-06-08T16:12:24.195Z,99.90
2019-06-08T16:13:24.695Z,84.30
2019-06-08T16:14:53.735Z,99.90
2019-06-08T16:15:53.463Z,81.40
2019-06-08T16:17:23.128Z,99.90
2019-06-08T16:18:25.438Z,79.50
2019-06-08T16:19:53.299Z,97.30
2019-06-08T16:20:54.187Z,76.50
2019-06-08T16:22:22.845Z,92.80
2019-06-08T16:23:22.735Z,75.40
2019-06-08T16:24:53.231Z,86.10
2019-06-08T16:25:51.282Z,74.00
2019-06-08T16:27:22.509Z,79.70
2019-06-08T16:28:19.833Z,74.70
2019-06-08T16:29:51.772Z,81.20
2019-06-08T16:30:48.315Z,72.60
2019-06-08T16:32:21.044Z,83.30
2019-06-08T16:33:16.872Z,75.40
2019-06-08T16:34:50.319Z,82.50
2019-06-08T16:35:45.426Z,73.90
2019-06-08T16:37:19.592Z,76.80
2019-06-08T16:38:13.974Z,70.10
2019-06-08T16:39:48.843Z,77.50
2019-06-08T16:40:43.615Z,69.60
2019-06-08T16:42:18.253Z,79.30
2019-06-08T16:43:12.161Z,68.60
2019-06-08T16:44:47.792Z,77.60
2019-06-08T16:45:40.882Z,66.30
2019-06-08T16:47:16.987Z,70.90
2019-06-08T16:48:09.434Z,66.30
2019-06-08T16:49:46.253Z,69.90
2019-06-08T16:50:38.538Z,64.50
2019-06-08T16:52:17.268Z,68.90
2019-06-08T16:53:07.093Z,64.90
2019-06-08T16:54:46.604Z,66.60
2019-06-08T16:55:38.547Z,65.70
2019-06-08T16:57:15.817Z,65.40
2019-06-08T16:58:07.106Z,63.90
2019-06-08T16:59:45.087Z,67.90
2019-06-08T17:00:38.965Z,64.00
2019-06-08T17:02:16.988Z,74.30
2019-06-08T17:03:05.870Z,67.70
2019-06-08T17:04:45.449Z,82.20
2019-06-08T17:05:35.257Z,69.00
2019-06-08T17:07:14.713Z,85.30
2019-06-08T17:08:03.939Z,71.90
2019-06-08T17:09:44.591Z,85.70
2019-06-08T17:10:32.657Z,72.30
2019-06-08T17:12:14.137Z,89.60
2019-06-08T17:13:01.212Z,73.10
2019-06-08T17:14:43.780Z,88.60
2019-06-08T17:15:30.201Z,73.10
2019-06-08T17:17:13.212Z,91.80
2019-06-08T17:17:58.977Z,74.60
2019-06-08T17:19:42.679Z,97.50
2019-06-08T17:20:30.086Z,77.20
2019-06-08T17:22:11.964Z,99.90
2019-06-08T17:22:58.717Z,80.10
2019-06-08T17:24:41.226Z,99.90
2019-06-08T17:25:27.268Z,82.00
2019-06-08T17:27:25.855Z,99.90
2019-06-08T17:27:55.819Z,83.10
2019-06-08T17:29:41.493Z,99.90
2019-06-08T17:30:24.362Z,81.80
2019-06-08T17:32:11.102Z,99.90
2019-06-08T17:32:52.843Z,82.40
2019-06-08T17:34:40.366Z,99.90
2019-06-08T17:35:21.389Z,80.90
2019-06-08T17:37:09.717Z,99.90
2019-06-08T17:37:49.964Z,81.00
2019-06-08T17:39:40.047Z,99.90
2019-06-08T17:40:18.581Z,80.00
2019-06-08T17:42:11.662Z,99.90
2019-06-08T17:42:47.142Z,80.20
2019-06-08T17:44:43.018Z,99.90
2019-06-08T17:45:15.916Z,79.30
2019-06-08T17:47:12.302Z,98.20
2019-06-08T17:47:44.393Z,77.10
2019-06-08T17:49:42.845Z,99.10
2019-06-08T17:50:14.114Z,78.40
2019-06-08T17:52:15.509Z,98.90
2019-06-08T17:52:43.070Z,77.70
2019-06-08T17:54:44.832Z,99.90
2019-06-08T17:55:11.693Z,77.80
2019-06-08T17:57:14.145Z,99.90
2019-06-08T17:57:50.592Z,80.30
2019-06-08T17:59:43.425Z,99.90
2019-06-08T18:00:11.986Z,81.60
2019-06-08T18:02:18.033Z,99.90
2019-06-08T18:02:44.268Z,81.20
2019-06-08T18:04:44.469Z,99.90
2019-06-08T18:05:13.737Z,79.80
2019-06-08T18:07:14.011Z,99.90
2019-06-08T18:07:43.954Z,80.10
2019-06-08T18:09:43.857Z,99.90
2019-06-08T18:10:12.671Z,78.90
2019-06-08T18:12:14.214Z,99.90
2019-06-08T18:12:43.484Z,79.80
2019-06-08T18:14:45.034Z,99.90
2019-06-08T18:15:11.591Z,80.30
2019-06-08T18:17:17.467Z,99.90
2019-06-08T18:17:42.654Z,79.50
2019-06-08T18:19:47.122Z,99.90
2019-06-08T18:20:14.217Z,76.50
2019-06-08T18:22:18.680Z,96.40
2019-06-08T18:22:44.350Z,75.50
2019-06-08T18:24:48.045Z,98.70
2019-06-08T18:25:17.174Z,76.60
2019-06-08T18:27:18.232Z,96.60
2019-06-08T18:28:02.937Z,76.20
2019-06-08T18:29:48.815Z,96.90
2019-06-08T18:30:18.909Z,75.90
2019-06-08T18:32:18.448Z,95.80
2019-06-08T18:32:48.534Z,74.30
2019-06-08T18:34:48.162Z,97.90
2019-06-08T18:35:18.291Z,75.70
2019-06-08T18:37:18.222Z,99.90
2019-06-08T18:37:48.666Z,76.80
2019-06-08T18:39:49.510Z,99.90
2019-06-08T18:40:18.325Z,76.70
2019-06-08T18:42:19.160Z,99.90
2019-06-08T18:42:48.747Z,77.60
2019-06-08T18:44:48.680Z,97.30
2019-06-08T18:45:18.535Z,77.80
2019-06-08T18:47:18.438Z,97.10
2019-06-08T18:47:48.441Z,77.90
2019-06-08T18:49:48.406Z,99.90
2019-06-08T18:50:17.584Z,77.50
2019-06-08T18:52:18.418Z,99.90
2019-06-08T18:52:47.351Z,78.80
2019-06-08T18:54:49.691Z,99.90
2019-06-08T18:55:18.222Z,79.90
2019-06-08T18:57:18.551Z,99.90
2019-06-08T18:57:49.062Z,79.60
2019-06-08T18:59:52.612Z,99.60
2019-06-08T19:00:18.691Z,79.70
2019-06-08T19:02:18.740Z,99.90
2019-06-08T19:02:50.015Z,81.10
2019-06-08T19:04:48.445Z,99.90
2019-06-08T19:05:20.807Z,80.20
2019-06-08T19:07:19.103Z,99.90
2019-06-08T19:07:50.115Z,80.10
2019-06-08T19:09:49.788Z,99.90
2019-06-08T19:10:32.743Z,81.90
2019-06-08T19:12:19.635Z,99.90
2019-06-08T19:13:01.310Z,80.90
2019-06-08T19:14:51.967Z,99.90
2019-06-08T19:15:38.818Z,81.70
2019-06-08T19:17:20.354Z,99.90
2019-06-08T19:18:08.210Z,81.40
2019-06-08T19:19:52.358Z,99.90
2019-06-08T19:20:37.406Z,81.50
2019-06-08T19:22:20.707Z,99.90
2019-06-08T19:23:09.135Z,82.40
2019-06-08T19:24:50.844Z,99.90
2019-06-08T19:25:42.202Z,82.50
2019-06-08T19:27:20.240Z,99.90
2019-06-08T19:28:07.804Z,83.00
2019-06-08T19:29:51.525Z,99.90
2019-06-08T19:30:39.398Z,83.30
2019-06-08T19:32:20.424Z,99.90
2019-06-08T19:33:07.440Z,83.30
2019-06-08T19:34:53.951Z,99.90
2019-06-08T19:35:36.043Z,83.80
2019-06-08T19:37:20.851Z,99.90
2019-06-08T19:38:06.991Z,84.60
2019-06-08T19:39:50.134Z,99.90
2019-06-08T19:40:34.893Z,84.90
2019-06-08T19:42:19.464Z,99.90
2019-06-08T19:43:03.549Z,85.10
2019-06-08T19:45:01.305Z,99.90
2019-06-08T19:45:32.221Z,84.80
2019-06-08T19:47:21.217Z,99.90
2019-06-08T19:48:00.711Z,84.60
2019-06-08T19:49:54.624Z,99.90
2019-06-08T19:50:29.273Z,84.90
2019-06-08T19:52:21.541Z,99.90
2019-06-08T19:52:58.188Z,85.20
2019-06-08T19:54:53.807Z,99.90
2019-06-08T19:55:27.625Z,85.00
2019-06-08T19:57:21.865Z,99.90
2019-06-08T19:57:57.512Z,85.20
2019-06-08T19:59:51.070Z,99.90
2019-06-08T20:00:28.270Z,85.50
2019-06-08T20:02:20.353Z,99.90
2019-06-08T20:02:58.305Z,86.20
2019-06-08T20:04:49.643Z,99.90
2019-06-08T20:05:28.444Z,86.20
2019-06-08T20:07:18.981Z,99.90
2019-06-08T20:07:57.624Z,86.80
2019-06-08T20:09:49.664Z,99.90
2019-06-08T20:10:27.959Z,88.50
2019-06-08T20:12:19.182Z,99.90
2019-06-08T20:12:57.621Z,88.80
2019-06-08T20:14:49.897Z,99.90
2019-06-08T20:15:26.560Z,89.20
2019-06-08T20:17:20.796Z,99.90
2019-06-08T20:17:57.279Z,89.80
2019-06-08T20:19:50.814Z,99.90
2019-06-08T20:20:27.692Z,89.60
2019-06-08T20:22:20.248Z,99.90
2019-06-08T20:22:55.541Z,90.00
2019-06-08T20:24:54.014Z,99.90
2019-06-08T20:25:24.085Z,90.30
2019-06-08T20:27:21.133Z,99.90
2019-06-08T20:27:53.723Z,90.30